Time;durP1;ratioP1;P1;durP2;ratioP2;P2;SDS_P1;SDS_P2;PMS_P1;PMS_P2;Temp;Humidity;BMP_temperature;BMP_pressure;BME280_temperature;BME280_humidity;BME280_pressure;Samples;Min_cycle;Max_cycle;Signal;HPM_P1;HPM_P2
2021/04/07 00:00:33;;;;;;;8.07;0.50;;;0.40;94.40;;;;;;4912779;28;20048;-84
2021/04/07 00:02:59;;;;;;;10.30;0.80;;;0.40;94.50;;;;;;4912500;29;20024;-84
2021/04/07 00:05:34;;;;;;;4.82;0.50;;;0.30;94.50;;;;;;4909051;29;20079;-84
2021/04/07 00:08:00;;;;;;;11.48;0.57;;;0.30;94.50;;;;;;4912609;28;20051;-84
2021/04/07 00:10:40;;;;;;;14.32;1.13;;;0.20;94.50;;;;;;4900786;29;20028;-84
2021/04/07 00:13:07;;;;;;;11.88;0.75;;;0.20;94.60;;;;;;4912851;29;20579;-85
2021/04/07 00:15:34;;;;;;;7.30;0.50;;;0.20;94.70;;;;;;4900823;29;20028;-84
2021/04/07 00:18:01;;;;;;;6.90;0.45;;;0.20;94.90;;;;;;4908100;29;20036;-85
2021/04/07 00:20:28;;;;;;;11.60;1.13;;;0.20;94.90;;;;;;4897710;29;20036;-85
2021/04/07 00:22:54;;;;;;;4.07;0.70;;;0.20;94.80;;;;;;4911814;29;20115;-82
2021/04/07 00:25:21;;;;;;;8.73;0.50;;;0.20;94.80;;;;;;4910122;29;20052;-83
2021/04/07 00:28:05;;;;;;;7.03;0.88;;;0.20;94.80;;;;;;4908370;29;20126;-82
2021/04/07 00:30:33;;;;;;;3.03;0.60;;;0.10;94.80;;;;;;4911130;29;20028;-85
2021/04/07 00:32:59;;;;;;;6.65;0.65;;;0.10;94.90;;;;;;4909839;29;20036;-85
2021/04/07 00:35:25;;;;;;;4.90;0.60;;;0.10;95.00;;;;;;4908756;29;20024;-85
2021/04/07 00:37:51;;;;;;;4.82;0.50;;;0.10;95.10;;;;;;4911672;29;20481;-85
2021/04/07 00:40:17;;;;;;;7.38;0.50;;;0.10;95.10;;;;;;4914349;29;20029;-85
2021/04/07 00:42:45;;;;;;;6.70;0.40;;;0.20;95.30;;;;;;4913451;28;20059;-84
2021/04/07 00:45:12;;;;;;;12.25;0.60;;;0.20;95.50;;;;;;4913471;28;20039;-84
2021/04/07 00:47:38;;;;;;;6.82;0.70;;;0.30;95.60;;;;;;4912093;29;20055;-85
2021/04/07 00:50:05;;;;;;;13.55;0.88;;;0.30;95.70;;;;;;4914276;29;20032;-85
2021/04/07 00:52:31;;;;;;;5.60;0.50;;;0.40;95.80;;;;;;4898811;29;20049;-85
2021/04/07 00:54:57;;;;;;;10.35;0.93;;;0.50;95.80;;;;;;4907741;28;20079;-85
2021/04/07 00:57:24;;;;;;;12.68;0.77;;;0.60;95.70;;;;;;4909569;29;20071;-84
2021/04/07 00:59:51;;;;;;;6.03;0.55;;;0.60;95.70;;;;;;4910776;28;20062;-85
2021/04/07 01:02:18;;;;;;;5.78;0.50;;;0.60;95.60;;;;;;4906957;28;20392;-84
2021/04/07 01:04:44;;;;;;;12.93;0.90;;;0.60;95.60;;;;;;4917150;29;20502;-85
2021/04/07 01:07:11;;;;;;;6.82;1.45;;;0.60;95.70;;;;;;4914955;29;20040;-84
2021/04/07 01:09:37;;;;;;;10.50;0.73;;;0.50;95.70;;;;;;4914616;29;20039;-84
2021/04/07 01:12:04;;;;;;;10.20;0.70;;;0.60;95.70;;;;;;4914979;29;20075;-85
2021/04/07 01:14:29;;;;;;;7.57;0.50;;;0.60;95.80;;;;;;4915000;28;20484;-84
2021/04/07 01:16:55;;;;;;;5.45;0.60;;;0.60;95.80;;;;;;4907769;28;20053;-84
2021/04/07 01:19:24;;;;;;;5.90;0.90;;;0.60;95.80;;;;;;4912441;29;20551;-84
2021/04/07 01:21:49;;;;;;;8.77;0.45;;;0.60;95.80;;;;;;4909423;29;20615;-85
2021/04/07 01:24:15;;;;;;;3.65;0.85;;;0.60;95.80;;;;;;4915756;29;20114;-84
2021/04/07 01:26:41;;;;;;;8.35;0.70;;;0.60;95.70;;;;;;4914569;29;20576;-85
2021/04/07 01:29:07;;;;;;;2.85;0.70;;;0.70;95.80;;;;;;4912562;28;20124;-84
2021/04/07 01:31:43;;;;;;;8.18;0.85;;;0.70;95.80;;;;;;4918845;28;20032;-83
2021/04/07 01:34:15;;;;;;;5.68;0.60;;;0.70;95.80;;;;;;4915613;29;20408;-83
2021/04/07 01:36:40;;;;;;;5.25;0.45;;;0.80;95.80;;;;;;4908018;29;20032;-83
2021/04/07 01:39:06;;;;;;;6.40;0.55;;;0.80;95.80;;;;;;4906306;28;20032;-84
2021/04/07 01:41:32;;;;;;;3.75;0.45;;;0.80;95.80;;;;;;4914926;29;20071;-83
2021/04/07 01:43:58;;;;;;;6.45;0.65;;;0.80;95.80;;;;;;4915506;29;20032;-83
2021/04/07 01:46:24;;;;;;;6.70;0.40;;;0.80;95.80;;;;;;4930463;28;20084;-83
2021/04/07 01:48:49;;;;;;;2.13;0.30;;;0.80;95.70;;;;;;4913134;29;20083;-85
2021/04/07 01:51:15;;;;;;;3.00;0.30;;;0.80;95.70;;;;;;4912414;29;20060;-85
2021/04/07 01:53:40;;;;;;;6.22;0.60;;;0.80;95.70;;;;;;4913738;29;20544;-84
2021/04/07 01:56:08;;;;;;;5.43;0.25;;;0.70;95.70;;;;;;4915875;29;20489;-85
2021/04/07 01:58:34;;;;;;;4.03;0.22;;;0.70;95.70;;;;;;4913795;28;20044;-84
2021/04/07 02:01:00;;;;;;;2.97;0.30;;;0.70;95.70;;;;;;4914018;28;20029;-83
2021/04/07 02:03:25;;;;;;;4.07;0.40;;;0.70;95.80;;;;;;4911474;29;20037;-85
2021/04/07 02:05:50;;;;;;;2.50;0.50;;;0.70;95.80;;;;;;4915451;29;20037;-84
2021/04/07 02:08:16;;;;;;;3.15;0.50;;;0.70;95.80;;;;;;4921679;29;20028;-84
2021/04/07 02:10:41;;;;;;;4.18;0.60;;;0.70;95.80;;;;;;4910767;29;20035;-84
2021/04/07 02:13:07;;;;;;;5.35;0.85;;;0.70;95.80;;;;;;4912623;29;20073;-84
2021/04/07 02:15:33;;;;;;;9.25;0.70;;;0.70;95.80;;;;;;4914605;29;20024;-84
2021/04/07 02:17:58;;;;;;;6.97;0.55;;;0.70;95.90;;;;;;4913442;29;20496;-84
2021/04/07 02:20:24;;;;;;;4.65;0.65;;;0.70;95.80;;;;;;4910292;29;20039;-84
2021/04/07 02:22:50;;;;;;;6.72;1.30;;;0.70;95.80;;;;;;4908235;29;20029;-84
2021/04/07 02:25:16;;;;;;;7.38;0.80;;;0.70;95.90;;;;;;4911912;29;20547;-84
2021/04/07 02:27:42;;;;;;;9.40;1.50;;;0.70;95.90;;;;;;4910303;29;20040;-84
2021/04/07 02:30:11;;;;;;;5.55;1.05;;;0.70;95.90;;;;;;4912684;29;20028;-84
2021/04/07 02:32:36;;;;;;;8.02;1.77;;;0.70;95.90;;;;;;4908169;28;20032;-84
2021/04/07 02:35:02;;;;;;;11.48;3.05;;;0.70;95.90;;;;;;4914092;29;20086;-84
2021/04/07 02:37:28;;;;;;;9.57;2.83;;;0.80;96.00;;;;;;4913592;29;20036;-85
2021/04/07 02:39:54;;;;;;;9.15;3.75;;;0.70;96.00;;;;;;4911451;29;20028;-84
2021/04/07 02:42:21;;;;;;;15.98;5.60;;;0.70;96.00;;;;;;4914117;29;20028;-85
2021/04/07 02:44:47;;;;;;;13.57;5.22;;;0.80;96.10;;;;;;4929260;28;20032;-85
2021/04/07 02:47:12;;;;;;;14.20;5.80;;;0.80;96.10;;;;;;4913992;29;20029;-85
2021/04/07 02:49:38;;;;;;;11.68;4.55;;;0.80;96.00;;;;;;4924313;28;20051;-84
2021/04/07 02:52:04;;;;;;;15.15;5.80;;;0.80;96.10;;;;;;4903286;29;20036;-84
2021/04/07 02:54:30;;;;;;;17.02;4.15;;;0.80;96.10;;;;;;4909629;29;20063;-84
2021/04/07 02:56:56;;;;;;;14.70;4.03;;;0.80;96.10;;;;;;4910910;28;20082;-85
2021/04/07 02:59:22;;;;;;;13.13;3.38;;;0.80;96.10;;;;;;4907810;28;20055;-84
2021/04/07 03:01:48;;;;;;;12.02;3.05;;;0.80;96.10;;;;;;4913930;29;20032;-84
2021/04/07 03:04:14;;;;;;;12.95;2.60;;;0.80;96.10;;;;;;4913532;28;20060;-84
2021/04/07 03:06:40;;;;;;;7.00;2.15;;;0.80;96.10;;;;;;4914558;29;20492;-84
2021/04/07 03:09:06;;;;;;;10.93;2.33;;;0.80;96.10;;;;;;4910024;29;20025;-84
2021/04/07 03:11:34;;;;;;;11.82;2.30;;;0.80;96.10;;;;;;4914081;29;20067;-84
2021/04/07 03:13:59;;;;;;;7.90;2.40;;;0.80;96.20;;;;;;4913114;29;20048;-84
2021/04/07 03:16:25;;;;;;;10.02;2.10;;;0.80;96.10;;;;;;4913065;29;20172;-84
2021/04/07 03:18:50;;;;;;;6.03;1.45;;;0.80;96.10;;;;;;4909207;29;20481;-84
2021/04/07 03:21:16;;;;;;;11.25;1.50;;;0.80;96.20;;;;;;4904720;28;20528;-84
2021/04/07 03:23:42;;;;;;;6.88;1.13;;;0.80;96.20;;;;;;4908024;29;20033;-84
2021/04/07 03:26:07;;;;;;;6.35;1.10;;;0.80;96.20;;;;;;4914339;29;20028;-84
2021/04/07 03:28:33;;;;;;;9.82;0.80;;;0.80;96.30;;;;;;4906053;29;20477;-84
2021/04/07 03:30:58;;;;;;;2.78;0.70;;;0.90;96.30;;;;;;4913151;28;20028;-84
2021/04/07 03:33:30;;;;;;;5.88;0.80;;;0.90;96.30;;;;;;4911199;28;20031;-84
2021/04/07 03:35:56;;;;;;;9.65;0.68;;;0.90;96.20;;;;;;4911186;28;20070;-84
2021/04/07 03:38:23;;;;;;;8.45;0.63;;;0.90;96.20;;;;;;4904006;29;20427;-84
2021/04/07 03:40:48;;;;;;;4.05;0.50;;;0.90;96.20;;;;;;4913250;29;20047;-84
2021/04/07 03:43:16;;;;;;;7.32;0.50;;;0.90;96.20;;;;;;4912995;29;20473;-84
2021/04/07 03:45:46;;;;;;;4.97;0.90;;;0.90;96.20;;;;;;4909799;29;20036;-84
2021/04/07 03:48:17;;;;;;;6.35;0.88;;;0.90;96.30;;;;;;4908630;29;20040;-84
2021/04/07 03:50:44;;;;;;;4.63;0.80;;;0.90;96.30;;;;;;4904180;28;20036;-84
2021/04/07 03:53:11;;;;;;;3.28;0.50;;;0.90;96.20;;;;;;4894986;29;20033;-84
2021/04/07 03:55:38;;;;;;;6.43;0.73;;;0.90;96.30;;;;;;4905054;28;20031;-84
2021/04/07 03:58:04;;;;;;;7.63;1.30;;;0.90;96.30;;;;;;4919172;29;20044;-84
2021/04/07 04:00:30;;;;;;;9.52;1.05;;;0.90;96.30;;;;;;4899470;28;20408;-83
2021/04/07 04:02:56;;;;;;;13.25;1.02;;;0.90;96.30;;;;;;4912156;28;20032;-84
2021/04/07 04:05:21;;;;;;;5.50;0.93;;;0.90;96.30;;;;;;4908332;29;20508;-84
2021/04/07 04:07:47;;;;;;;5.43;0.80;;;0.90;96.30;;;;;;4911392;29;20036;-84
2021/04/07 04:10:14;;;;;;;7.25;1.05;;;0.90;96.30;;;;;;4912646;29;20025;-84
2021/04/07 04:12:40;;;;;;;7.43;1.30;;;0.90;96.30;;;;;;4913273;29;20562;-84
2021/04/07 04:15:09;;;;;;;10.15;1.13;;;0.80;96.40;;;;;;4907323;29;20531;-83
2021/04/07 04:17:35;;;;;;;12.90;1.90;;;0.90;96.40;;;;;;4906010;28;20040;-84
2021/04/07 04:20:01;;;;;;;5.25;1.10;;;0.90;96.50;;;;;;4912282;29;20024;-83
2021/04/07 04:22:26;;;;;;;14.65;2.22;;;0.80;96.40;;;;;;4911457;29;20086;-83
2021/04/07 04:24:52;;;;;;;8.02;1.55;;;0.80;96.40;;;;;;4907927;28;20029;-83
2021/04/07 04:27:17;;;;;;;11.98;1.30;;;0.80;96.40;;;;;;4906335;28;20132;-83
2021/04/07 04:29:43;;;;;;;10.55;1.20;;;0.80;96.50;;;;;;4903634;29;20074;-83
2021/04/07 04:32:08;;;;;;;12.15;1.83;;;0.80;96.50;;;;;;4909766;28;20036;-83
2021/04/07 04:34:34;;;;;;;12.35;1.90;;;0.80;96.60;;;;;;4907223;29;20484;-83
2021/04/07 04:36:59;;;;;;;11.50;1.67;;;0.80;96.60;;;;;;4914647;28;20127;-83
2021/04/07 04:39:25;;;;;;;12.57;2.25;;;0.80;96.60;;;;;;4915785;29;20028;-83
2021/04/07 04:41:50;;;;;;;9.38;1.67;;;0.80;96.60;;;;;;4915677;29;20135;-83
2021/04/07 04:44:16;;;;;;;8.95;1.27;;;0.80;96.60;;;;;;4915681;28;20369;-82
2021/04/07 04:46:41;;;;;;;6.78;1.45;;;0.80;96.60;;;;;;4915542;29;20028;-82
2021/04/07 04:49:07;;;;;;;8.55;1.25;;;0.80;96.60;;;;;;4917075;29;20059;-83
2021/04/07 04:51:32;;;;;;;8.32;1.20;;;0.80;96.70;;;;;;4912200;29;20033;-82
2021/04/07 04:53:58;;;;;;;12.38;1.08;;;0.80;96.70;;;;;;4902833;29;20504;-82
2021/04/07 04:56:23;;;;;;;9.30;1.15;;;0.90;96.70;;;;;;4934802;28;20118;-82
2021/04/07 04:58:49;;;;;;;7.78;1.00;;;0.90;96.70;;;;;;4943961;28;20025;-82
2021/04/07 05:01:14;;;;;;;7.07;0.90;;;0.90;96.80;;;;;;4910241;28;20048;-82
2021/04/07 05:03:40;;;;;;;5.78;1.83;;;0.90;96.80;;;;;;4915954;29;20024;-82
2021/04/07 05:06:05;;;;;;;7.13;1.50;;;0.90;96.80;;;;;;4911356;28;20048;-81
2021/04/07 05:08:31;;;;;;;3.80;1.30;;;0.90;96.80;;;;;;4915632;29;20086;-82
2021/04/07 05:10:57;;;;;;;6.22;1.90;;;0.90;96.90;;;;;;4917311;28;20028;-82
2021/04/07 05:13:22;;;;;;;7.85;2.00;;;0.90;96.90;;;;;;4927883;28;20024;-82
2021/04/07 05:15:48;;;;;;;6.10;1.85;;;0.90;96.90;;;;;;4925750;28;20040;-82
2021/04/07 05:18:15;;;;;;;7.72;1.92;;;0.80;96.90;;;;;;4910105;29;20028;-81
2021/04/07 05:20:41;;;;;;;6.40;2.28;;;0.80;96.90;;;;;;4915750;29;20024;-82
2021/04/07 05:23:08;;;;;;;6.18;2.10;;;0.80;97.00;;;;;;4931959;28;20024;-82
2021/04/07 05:25:35;;;;;;;8.75;2.30;;;0.80;96.90;;;;;;4914067;29;20028;-81
2021/04/07 05:28:03;;;;;;;7.03;1.70;;;0.80;96.90;;;;;;4913511;29;20123;-81
2021/04/07 05:30:58;;;;;;;8.50;2.95;;;0.70;96.90;;;;;;4914252;28;20024;-82
2021/04/07 05:33:14;;;;;;;9.07;2.65;;;0.70;96.90;;;;;;4912442;28;20400;-82
2021/04/07 05:35:39;;;;;;;11.10;3.28;;;0.70;97.10;;;;;;4918318;28;20036;-81
2021/04/07 05:38:05;;;;;;;14.63;6.60;;;0.60;97.00;;;;;;4914111;29;20071;-82
2021/04/07 05:40:30;;;;;;;9.15;6.50;;;0.60;97.10;;;;;;4903141;28;20469;-82
2021/04/07 05:42:56;;;;;;;15.23;7.40;;;0.60;97.30;;;;;;4908177;28;20037;-81
2021/04/07 05:45:21;;;;;;;13.25;7.20;;;0.60;97.40;;;;;;4908999;28;20063;-84
2021/04/07 05:47:47;;;;;;;12.90;7.82;;;0.70;97.50;;;;;;4903223;28;20028;-82
2021/04/07 05:50:12;;;;;;;11.45;6.22;;;0.70;97.40;;;;;;4913351;29;20086;-82
2021/04/07 05:52:38;;;;;;;15.02;5.80;;;0.70;97.40;;;;;;4912073;29;20028;-81
2021/04/07 05:55:04;;;;;;;11.07;5.13;;;0.70;97.50;;;;;;4916238;29;20116;-83
2021/04/07 05:57:30;;;;;;;8.65;3.65;;;0.70;97.40;;;;;;4916844;29;20459;-81
2021/04/07 05:59:55;;;;;;;10.13;4.38;;;0.70;97.40;;;;;;4916767;28;20044;-81
2021/04/07 06:02:21;;;;;;;10.73;4.45;;;0.70;97.30;;;;;;4913099;28;20119;-81
2021/04/07 06:04:46;;;;;;;8.75;4.43;;;0.60;97.40;;;;;;4915883;28;20028;-81
2021/04/07 06:07:12;;;;;;;5.45;3.67;;;0.60;97.50;;;;;;4916296;28;20055;-82
2021/04/07 06:09:37;;;;;;;8.90;4.35;;;0.70;97.70;;;;;;4917301;28;20063;-81
2021/04/07 06:12:03;;;;;;;8.77;4.40;;;0.70;97.80;;;;;;4916348;28;20105;-82
2021/04/07 06:14:28;;;;;;;8.63;3.88;;;0.80;97.80;;;;;;4916501;29;20039;-82
2021/04/07 06:16:54;;;;;;;6.78;4.00;;;0.80;98.10;;;;;;4917014;28;20044;-82
2021/04/07 06:19:19;;;;;;;5.75;2.90;;;0.90;97.80;;;;;;4915967;29;20090;-82
2021/04/07 06:21:45;;;;;;;6.10;3.70;;;0.90;97.80;;;;;;4918271;29;20040;-82
2021/04/07 06:24:10;;;;;;;5.05;3.65;;;0.90;97.80;;;;;;4916178;29;20029;-81
2021/04/07 06:26:38;;;;;;;6.72;3.60;;;0.90;97.70;;;;;;4909870;29;20048;-82
2021/04/07 06:29:03;;;;;;;4.28;2.28;;;0.90;97.70;;;;;;4913333;29;20464;-82
2021/04/07 06:31:29;;;;;;;5.72;2.78;;;0.90;97.70;;;;;;4916170;29;20030;-82
2021/04/07 06:33:54;;;;;;;5.03;3.10;;;0.90;97.70;;;;;;4913076;29;20020;-82
2021/04/07 06:36:20;;;;;;;7.45;3.25;;;0.90;97.80;;;;;;4914263;29;20445;-82
2021/04/07 06:38:45;;;;;;;5.68;2.70;;;0.90;97.80;;;;;;4914749;29;20043;-82
2021/04/07 06:41:11;;;;;;;8.43;3.80;;;0.90;97.90;;;;;;4914548;29;20030;-81
2021/04/07 06:43:37;;;;;;;7.65;3.83;;;0.90;97.90;;;;;;4913337;29;20020;-83
2021/04/07 06:46:05;;;;;;;8.57;4.15;;;1.00;97.90;;;;;;4914342;29;20082;-82
2021/04/07 06:48:31;;;;;;;12.63;6.07;;;1.00;98.00;;;;;;4915695;29;20143;-82
2021/04/07 06:50:57;;;;;;;13.13;5.97;;;1.10;98.00;;;;;;4915791;29;20485;-82
2021/04/07 06:53:25;;;;;;;7.38;3.85;;;1.10;98.00;;;;;;4914609;29;20123;-82
2021/04/07 06:55:51;;;;;;;11.43;5.65;;;1.20;97.90;;;;;;4915047;29;20027;-83
2021/04/07 06:58:16;;;;;;;10.32;5.45;;;1.20;97.90;;;;;;4914391;29;20485;-82
2021/04/07 07:00:42;;;;;;;12.25;5.53;;;1.30;98.00;;;;;;4912463;28;20123;-83
2021/04/07 07:03:08;;;;;;;10.13;5.82;;;1.30;98.10;;;;;;4921360;29;20078;-83
2021/04/07 07:05:37;;;;;;;12.80;6.57;;;1.40;98.10;;;;;;4929847;28;20158;-84
2021/04/07 07:08:05;;;;;;;13.02;6.75;;;1.50;98.10;;;;;;4913951;29;20540;-83
2021/04/07 07:10:39;;;;;;;15.75;8.00;;;1.50;98.00;;;;;;4914965;28;20036;-83
2021/04/07 07:13:06;;;;;;;14.95;6.72;;;1.60;98.10;;;;;;4914314;29;20036;-83
2021/04/07 07:15:32;;;;;;;18.23;7.57;;;1.80;98.30;;;;;;4915433;29;20032;-84
2021/04/07 07:17:57;;;;;;;18.35;7.38;;;1.90;98.20;;;;;;4910007;29;20043;-83
2021/04/07 07:20:28;;;;;;;22.17;9.57;;;2.00;98.00;;;;;;4911033;29;20033;-83
2021/04/07 07:22:53;;;;;;;24.15;11.60;;;2.10;97.90;;;;;;4928142;29;20043;-83
2021/04/07 07:25:19;;;;;;;23.02;10.13;;;2.00;97.80;;;;;;4914301;29;20477;-83
2021/04/07 07:27:44;;;;;;;28.38;9.80;;;2.00;97.80;;;;;;4913401;28;20110;-83
2021/04/07 07:30:12;;;;;;;21.40;8.77;;;2.10;98.00;;;;;;4915631;29;20031;-83
2021/04/07 07:32:43;;;;;;;25.60;9.57;;;2.20;98.10;;;;;;4915192;28;20032;-83
2021/04/07 07:35:17;;;;;;;20.98;7.53;;;2.30;98.20;;;;;;4908751;29;20556;-83
2021/04/07 07:37:44;;;;;;;20.00;6.60;;;2.40;98.00;;;;;;4912537;28;20052;-83
2021/04/07 07:40:19;;;;;;;21.80;5.43;;;2.50;97.90;;;;;;4915552;29;20028;-82
2021/04/07 07:42:45;;;;;;;21.08;4.90;;;2.50;97.90;;;;;;4902341;29;20041;-83
2021/04/07 07:45:12;;;;;;;21.70;3.53;;;2.60;98.30;;;;;;4898146;29;20111;-81
2021/04/07 07:47:42;;;;;;;23.83;2.95;;;2.70;98.20;;;;;;4911209;29;20032;-81
2021/04/07 07:50:09;;;;;;;22.50;2.80;;;2.80;98.20;;;;;;4915344;29;20033;-81
2021/04/07 07:52:37;;;;;;;16.13;1.80;;;2.90;98.20;;;;;;4916077;29;20028;-82
2021/04/07 07:55:18;;;;;;;16.38;1.80;;;3.00;98.10;;;;;;4915684;29;20028;-82
2021/04/07 07:57:58;;;;;;;23.42;2.58;;;3.10;98.10;;;;;;4916656;29;20036;-82
2021/04/07 08:00:24;;;;;;;23.00;2.17;;;3.20;98.00;;;;;;4913690;28;20106;-83
2021/04/07 08:02:50;;;;;;;20.77;1.70;;;3.20;98.00;;;;;;4914586;29;20024;-82
2021/04/07 08:05:20;;;;;;;18.88;1.58;;;3.20;98.00;;;;;;4913543;29;20400;-83
2021/04/07 08:07:46;;;;;;;14.75;1.30;;;3.30;98.10;;;;;;4913306;29;20031;-82
2021/04/07 08:10:14;;;;;;;23.35;2.15;;;3.30;98.10;;;;;;4914063;29;20090;-83
2021/04/07 08:12:41;;;;;;;18.17;1.10;;;3.40;98.10;;;;;;4913523;29;20476;-83
2021/04/07 08:15:09;;;;;;;14.43;1.58;;;3.40;98.10;;;;;;4914620;29;20051;-83
2021/04/07 08:17:35;;;;;;;14.95;2.30;;;3.50;98.10;;;;;;4914496;29;20039;-83
2021/04/07 08:20:03;;;;;;;14.38;1.48;;;3.40;97.80;;;;;;4913200;29;20051;-82
2021/04/07 08:22:29;;;;;;;5.03;0.45;;;3.40;97.60;;;;;;4913465;29;20040;-83
2021/04/07 08:24:59;;;;;;;9.40;0.43;;;3.20;97.60;;;;;;4913438;29;20024;-83
2021/04/07 08:27:26;;;;;;;8.88;0.85;;;3.10;97.60;;;;;;4912231;29;20032;-83
2021/04/07 08:29:51;;;;;;;6.55;0.40;;;3.00;97.70;;;;;;4913301;29;20052;-83
2021/04/07 08:32:22;;;;;;;8.98;1.00;;;3.00;97.80;;;;;;4913356;29;20438;-83
2021/04/07 08:34:48;;;;;;;22.30;2.72;;;3.00;97.90;;;;;;4913225;29;20415;-84
2021/04/07 08:37:28;;;;;;;19.13;2.15;;;3.10;98.20;;;;;;4913185;29;20040;-84
2021/04/07 08:40:15;;;;;;;12.77;0.90;;;3.30;98.20;;;;;;4913997;28;20062;-84
2021/04/07 08:42:41;;;;;;;27.23;2.30;;;3.40;98.20;;;;;;4927898;29;20374;-83
2021/04/07 08:45:12;;;;;;;16.02;1.40;;;3.50;98.40;;;;;;4909600;29;20098;-83
2021/04/07 08:47:51;;;;;;;24.30;2.15;;;3.60;98.40;;;;;;4914963;29;20503;-83
2021/04/07 08:50:17;;;;;;;24.77;2.28;;;3.80;98.40;;;;;;4915231;29;20028;-83
2021/04/07 08:52:45;;;;;;;25.33;2.40;;;3.90;98.30;;;;;;4914731;29;20039;-83
2021/04/07 08:55:13;;;;;;;30.55;2.47;;;4.00;98.30;;;;;;4913161;29;20056;-83
2021/04/07 08:57:40;;;;;;;35.38;3.05;;;4.10;98.30;;;;;;4915419;29;20037;-83
2021/04/07 09:00:14;;;;;;;43.40;4.03;;;4.30;98.40;;;;;;4926921;29;20045;-82
2021/04/07 09:02:55;;;;;;;32.25;3.13;;;4.50;98.40;;;;;;4931362;29;20481;-82
2021/04/07 09:05:36;;;;;;;33.75;3.10;;;4.70;98.20;;;;;;4910355;29;20485;-82
2021/04/07 09:08:03;;;;;;;33.17;3.65;;;4.80;98.00;;;;;;4936121;28;20038;-82
2021/04/07 09:10:40;;;;;;;35.10;4.45;;;4.90;97.80;;;;;;4908270;28;20039;-82
2021/04/07 09:13:08;;;;;;;35.72;4.05;;;5.00;97.60;;;;;;4914026;29;20031;-83
2021/04/07 09:15:33;;;;;;;35.97;3.45;;;5.10;97.30;;;;;;4912528;28;20032;-82
2021/04/07 09:17:59;;;;;;;40.50;3.90;;;5.20;96.80;;;;;;4914863;29;20094;-82
2021/04/07 09:20:42;;;;;;;27.20;2.45;;;5.30;96.50;;;;;;4913907;29;20416;-83
2021/04/07 09:23:30;;;;;;;23.40;2.30;;;5.40;95.90;;;;;;4917146;29;20177;-84
2021/04/07 09:26:13;;;;;;;25.17;1.88;;;5.40;95.20;;;;;;4917305;29;20063;-84
2021/04/07 09:28:42;;;;;;;7.88;0.63;;;5.20;94.70;;;;;;4915367;29;20038;-83
2021/04/07 09:31:34;;;;;;;6.95;0.55;;;4.70;94.10;;;;;;4927899;28;20051;-84
2021/04/07 09:34:01;;;;;;;9.25;0.57;;;4.30;94.70;;;;;;4917711;29;20024;-82
2021/04/07 09:36:27;;;;;;;5.57;0.50;;;4.10;95.30;;;;;;4917781;29;20025;-83
2021/04/07 09:38:55;;;;;;;8.85;0.70;;;4.00;95.80;;;;;;4924192;29;20045;-84
2021/04/07 09:41:23;;;;;;;13.60;1.02;;;4.00;96.10;;;;;;4918587;29;20032;-83
2021/04/07 09:43:49;;;;;;;16.85;0.90;;;4.00;96.30;;;;;;4917860;29;20036;-83
2021/04/07 09:46:16;;;;;;;14.70;1.35;;;4.10;96.50;;;;;;4916442;29;20028;-83
2021/04/07 09:48:53;;;;;;;16.23;1.17;;;4.20;96.70;;;;;;4915870;29;20118;-83
2021/04/07 09:51:24;;;;;;;13.52;1.13;;;4.40;96.90;;;;;;4916465;28;20115;-83
2021/04/07 09:53:51;;;;;;;16.15;0.95;;;4.70;97.10;;;;;;4916794;29;20024;-82
2021/04/07 09:56:17;;;;;;;21.83;2.33;;;5.00;97.10;;;;;;4912564;29;20119;-82
2021/04/07 09:58:44;;;;;;;18.42;2.10;;;5.40;97.00;;;;;;4896199;29;20135;-82
2021/04/07 10:01:13;;;;;;;20.67;1.77;;;5.60;96.60;;;;;;4913291;28;20127;-82
2021/04/07 10:03:55;;;;;;;23.98;2.42;;;5.80;96.30;;;;;;4916074;29;20107;-82
2021/04/07 10:06:26;;;;;;;20.55;1.92;;;5.90;95.50;;;;;;4911244;29;20040;-82
2021/04/07 10:09:09;;;;;;;20.45;2.35;;;6.10;95.10;;;;;;4907687;29;20040;-82
2021/04/07 10:11:40;;;;;;;21.63;2.00;;;6.20;94.90;;;;;;4914778;29;20488;-82
2021/04/07 10:14:07;;;;;;;18.75;2.10;;;6.30;93.80;;;;;;4916190;28;20046;-82
2021/04/07 10:16:38;;;;;;;22.92;2.75;;;6.30;93.00;;;;;;4916653;29;20056;-82
2021/04/07 10:19:09;;;;;;;26.00;2.50;;;6.10;93.10;;;;;;4918544;29;20046;-81
2021/04/07 10:21:35;;;;;;;21.10;2.15;;;5.80;92.90;;;;;;4903378;28;20016;-85
2021/04/07 10:24:03;;;;;;;32.38;3.38;;;5.60;93.40;;;;;;4904778;28;20024;-85
2021/04/07 10:26:29;;;;;;;27.10;2.22;;;5.40;93.80;;;;;;4908247;29;20180;-81
2021/04/07 10:29:02;;;;;;;20.75;2.10;;;5.10;93.30;;;;;;4911182;28;20162;-84
2021/04/07 10:31:29;;;;;;;33.72;3.67;;;4.70;94.00;;;;;;4905317;28;20396;-84
2021/04/07 10:34:08;;;;;;;18.63;2.30;;;4.60;95.00;;;;;;4905560;29;20063;-84
2021/04/07 10:36:37;;;;;;;24.27;2.30;;;4.70;95.80;;;;;;4921048;28;20039;-85
2021/04/07 10:39:16;;;;;;;22.63;1.83;;;5.00;96.60;;;;;;4908510;28;20923;-84
2021/04/07 10:41:48;;;;;;;26.45;2.15;;;5.30;96.50;;;;;;4907915;28;20057;-84
2021/04/07 10:44:27;;;;;;;23.98;4.05;;;5.60;95.90;;;;;;4908071;29;20444;-84
2021/04/07 10:46:53;;;;;;;16.55;1.08;;;6.00;95.10;;;;;;4925309;28;20037;-84
2021/04/07 10:49:20;;;;;;;21.45;1.80;;;6.20;93.20;;;;;;4931937;28;20075;-83
2021/04/07 10:52:00;;;;;;;23.30;2.10;;;6.50;93.50;;;;;;4909185;28;20024;-84
2021/04/07 10:54:27;;;;;;;18.92;1.67;;;6.80;93.40;;;;;;4910585;28;20104;-84
2021/04/07 10:57:09;;;;;;;20.98;1.67;;;6.90;91.80;;;;;;4912425;28;20057;-83
2021/04/07 10:59:34;;;;;;;17.23;2.08;;;6.70;91.20;;;;;;4922969;28;20488;-84
2021/04/07 11:02:13;;;;;;;18.20;1.88;;;6.60;90.60;;;;;;4908613;28;20037;-82
2021/04/07 11:04:38;;;;;;;19.58;2.55;;;6.30;90.90;;;;;;4903075;28;20017;-83
2021/04/07 11:07:04;;;;;;;25.08;2.42;;;5.90;91.70;;;;;;4911323;28;20032;-84
2021/04/07 11:09:38;;;;;;;21.08;1.73;;;5.60;91.80;;;;;;4911855;28;20476;-83
2021/04/07 11:12:05;;;;;;;16.90;2.72;;;5.30;91.70;;;;;;4925520;29;21947;-85
2021/04/07 11:14:31;;;;;;;20.70;2.35;;;5.10;92.70;;;;;;4922399;28;20480;-85
2021/04/07 11:16:59;;;;;;;19.67;2.05;;;5.00;93.40;;;;;;4908896;28;20048;-84
2021/04/07 11:19:36;;;;;;;24.92;1.60;;;5.10;93.50;;;;;;4921594;28;20054;-84
2021/04/07 11:22:03;;;;;;;11.13;0.80;;;5.30;92.90;;;;;;4912168;28;20032;-83
2021/04/07 11:24:29;;;;;;;10.93;0.98;;;5.40;92.20;;;;;;4910489;28;20032;-83
2021/04/07 11:26:56;;;;;;;10.95;0.68;;;5.30;91.80;;;;;;4923809;28;20020;-83
2021/04/07 11:29:21;;;;;;;8.70;0.68;;;5.10;91.70;;;;;;4916511;28;20462;-83
2021/04/07 11:31:51;;;;;;;10.65;0.60;;;4.70;90.80;;;;;;4907879;29;20058;-84
2021/04/07 11:34:20;;;;;;;12.73;0.60;;;4.50;91.10;;;;;;4909863;28;20032;-85
2021/04/07 11:39:17;;;;;;;14.38;1.10;;;4.60;91.50;;;;;;4908739;28;20195;-84
2021/04/07 11:46:34;;;;;;;12.52;1.08;;;5.10;91.00;;;;;;4915918;29;20105;-84
2021/04/07 11:49:00;;;;;;;17.42;0.80;;;5.40;90.90;;;;;;4931636;29;20024;-84
2021/04/07 11:51:26;;;;;;;10.77;2.17;;;5.60;90.80;;;;;;4929905;29;20038;-84
2021/04/07 11:53:51;;;;;;;16.42;1.27;;;5.90;90.40;;;;;;4918235;28;20115;-83
2021/04/07 11:56:17;;;;;;;13.23;1.15;;;6.00;89.40;;;;;;4916155;29;20031;-83
2021/04/07 11:58:44;;;;;;;15.32;1.40;;;6.10;89.40;;;;;;4916510;29;20043;-83
2021/04/07 12:01:10;;;;;;;16.17;1.10;;;6.10;88.70;;;;;;4915332;29;20501;-84
2021/04/07 12:03:35;;;;;;;13.70;0.95;;;5.80;89.20;;;;;;4915534;29;20039;-83
2021/04/07 12:06:01;;;;;;;14.75;1.80;;;5.70;90.40;;;;;;4915463;28;20032;-83
2021/04/07 12:08:27;;;;;;;18.25;1.48;;;5.80;90.50;;;;;;4915431;29;20052;-84
2021/04/07 12:10:53;;;;;;;11.68;1.10;;;5.90;90.30;;;;;;4915174;29;20115;-83
2021/04/07 12:13:18;;;;;;;15.32;1.48;;;6.00;90.60;;;;;;4915300;28;20032;-83
2021/04/07 12:15:44;;;;;;;17.35;1.40;;;6.20;90.00;;;;;;4939864;28;20036;-83
2021/04/07 12:18:10;;;;;;;19.15;1.05;;;6.30;88.50;;;;;;4915198;29;20112;-84
2021/04/07 12:20:36;;;;;;;17.98;2.30;;;6.30;88.50;;;;;;4911473;28;20025;-84
2021/04/07 12:23:02;;;;;;;11.32;0.77;;;6.40;86.60;;;;;;4915520;29;20205;-83
2021/04/07 12:25:28;;;;;;;11.23;0.90;;;6.50;84.60;;;;;;4915000;28;20111;-83
2021/04/07 12:27:54;;;;;;;13.40;1.15;;;6.50;84.70;;;;;;4915491;29;20038;-84
2021/04/07 12:30:21;;;;;;;10.95;1.10;;;6.70;84.50;;;;;;4930996;28;20031;-84
2021/04/07 12:32:47;;;;;;;10.32;1.02;;;6.80;84.80;;;;;;4916392;29;20032;-84
2021/04/07 12:35:13;;;;;;;11.75;1.17;;;7.00;85.70;;;;;;4914771;28;20121;-83
2021/04/07 12:37:42;;;;;;;10.93;0.80;;;7.20;85.30;;;;;;4937582;28;20519;-84
2021/04/07 12:40:08;;;;;;;14.25;1.48;;;7.40;82.40;;;;;;4929391;29;20082;-84
2021/04/07 12:42:34;;;;;;;13.05;1.23;;;7.40;80.90;;;;;;4914227;29;20033;-83
2021/04/07 12:45:00;;;;;;;8.05;0.93;;;7.30;80.00;;;;;;4910319;28;20021;-83
2021/04/07 12:47:25;;;;;;;7.45;0.57;;;7.30;79.70;;;;;;4903723;29;20495;-84
2021/04/07 12:49:51;;;;;;;11.20;0.88;;;7.30;77.20;;;;;;4913567;28;20025;-84
2021/04/07 12:52:16;;;;;;;6.50;1.02;;;7.10;75.90;;;;;;4906583;28;20028;-84
2021/04/07 12:54:42;;;;;;;7.25;1.00;;;7.10;76.30;;;;;;4906578;29;20036;-83
2021/04/07 12:57:08;;;;;;;8.52;0.70;;;6.90;76.10;;;;;;4916246;29;20044;-84
2021/04/07 12:59:34;;;;;;;14.48;1.75;;;6.60;76.30;;;;;;4917760;28;20040;-85